Time;durP1;ratioP1;P1;durP2;ratioP2;P2;SDS_P1;SDS_P2;PMS_P1;PMS_P2;Temp;Humidity;BMP_temperature;BMP_pressure;BME280_temperature;BME280_humidity;BME280_pressure;Samples;Min_cycle;Max_cycle;Signal;HPM_P1;HPM_P2
2020/12/31 00:00:43;;;;;;;10.07;5.70;;;3.90;99.90;;;;;;5046010;28;20021;-89
2020/12/31 00:03:09;;;;;;;7.97;5.65;;;3.90;99.90;;;;;;5049759;28;20017;-89
2020/12/31 00:05:34;;;;;;;7.28;5.30;;;3.90;99.90;;;;;;5052872;28;20021;-89
2020/12/31 00:08:00;;;;;;;9.50;5.75;;;3.90;99.90;;;;;;5045176;28;20409;-89
2020/12/31 00:10:30;;;;;;;12.10;5.20;;;3.90;99.90;;;;;;5053184;28;20067;-89
2020/12/31 00:12:56;;;;;;;9.27;4.93;;;3.90;99.90;;;;;;5041674;28;20021;-89
2020/12/31 00:15:21;;;;;;;8.50;5.22;;;3.90;99.90;;;;;;5061678;28;20059;-89
2020/12/31 00:17:47;;;;;;;14.00;5.78;;;3.90;99.90;;;;;;5043780;28;20056;-89
2020/12/31 00:20:12;;;;;;;8.38;4.75;;;3.90;99.90;;;;;;5045076;28;20024;-89
2020/12/31 00:22:38;;;;;;;8.30;4.85;;;3.90;99.90;;;;;;5043381;28;20460;-89
2020/12/31 00:25:07;;;;;;;12.73;5.60;;;3.90;99.90;;;;;;5040381;28;20044;-90
2020/12/31 00:27:33;;;;;;;8.82;5.07;;;3.90;99.90;;;;;;5042413;28;20045;-89
2020/12/31 00:29:59;;;;;;;9.07;4.78;;;3.90;99.90;;;;;;5065084;28;21195;-89
2020/12/31 00:32:24;;;;;;;8.02;5.00;;;3.80;99.90;;;;;;5041618;28;20028;-89
2020/12/31 00:34:50;;;;;;;8.85;4.65;;;3.80;99.90;;;;;;5046266;28;20031;-89
2020/12/31 00:37:15;;;;;;;9.95;4.57;;;3.80;99.90;;;;;;5064773;28;20029;-89
2020/12/31 00:39:41;;;;;;;8.43;4.32;;;3.80;99.90;;;;;;5043261;28;20021;-89
2020/12/31 00:42:06;;;;;;;9.25;4.30;;;3.90;99.90;;;;;;5047551;28;20360;-89
2020/12/31 00:44:33;;;;;;;10.30;4.70;;;3.80;99.90;;;;;;5050085;28;20104;-89
2020/12/31 00:46:59;;;;;;;8.13;4.55;;;3.90;99.90;;;;;;5046989;28;20035;-89
2020/12/31 00:49:24;;;;;;;8.80;3.72;;;3.80;99.90;;;;;;5062087;28;20032;-89
2020/12/31 00:51:50;;;;;;;7.65;4.60;;;3.80;99.90;;;;;;5048975;28;20029;-89
2020/12/31 00:54:15;;;;;;;7.95;4.35;;;3.80;99.90;;;;;;5043247;28;20021;-89
2020/12/31 00:56:41;;;;;;;10.00;4.55;;;3.80;99.90;;;;;;5067191;28;20388;-89
2020/12/31 00:59:06;;;;;;;8.25;4.50;;;3.90;99.90;;;;;;5043483;28;20115;-90
2020/12/31 01:01:33;;;;;;;7.25;4.68;;;3.90;99.90;;;;;;5043342;28;20487;-89
2020/12/31 01:03:58;;;;;;;8.57;4.40;;;3.80;99.90;;;;;;5047072;28;20498;-89
2020/12/31 01:06:24;;;;;;;8.45;4.60;;;3.80;99.90;;;;;;5039218;28;20111;-90
2020/12/31 01:08:49;;;;;;;8.02;4.65;;;3.80;99.90;;;;;;5062386;28;20150;-89
2020/12/31 01:11:19;;;;;;;7.72;4.35;;;3.80;99.90;;;;;;5041598;28;20024;-89
2020/12/31 01:13:45;;;;;;;10.63;4.70;;;3.80;99.90;;;;;;5044647;28;20013;-90
2020/12/31 01:16:10;;;;;;;7.85;4.85;;;3.80;99.90;;;;;;5044770;28;20017;-89
2020/12/31 01:18:36;;;;;;;6.38;4.22;;;3.80;99.90;;;;;;5045656;28;20012;-89
2020/12/31 01:21:07;;;;;;;8.63;4.72;;;3.80;99.90;;;;;;5059542;28;20067;-90
2020/12/31 01:23:33;;;;;;;7.07;4.45;;;3.80;99.90;;;;;;5055452;28;20024;-90
2020/12/31 01:25:58;;;;;;;9.05;5.18;;;3.80;99.90;;;;;;5044395;28;20017;-89
2020/12/31 01:28:24;;;;;;;7.55;4.88;;;3.80;99.90;;;;;;5062452;28;20071;-89
2020/12/31 01:30:49;;;;;;;7.47;5.28;;;3.80;99.90;;;;;;5065984;28;20036;-90
2020/12/31 01:33:16;;;;;;;9.00;4.88;;;3.80;99.90;;;;;;5040683;28;20028;-89
2020/12/31 01:35:42;;;;;;;7.75;5.22;;;3.70;99.90;;;;;;5067671;28;20016;-89
2020/12/31 01:38:07;;;;;;;8.35;5.65;;;3.70;99.90;;;;;;5041754;28;20051;-89
2020/12/31 01:40:33;;;;;;;7.57;5.55;;;3.70;99.90;;;;;;5039166;28;20023;-90
2020/12/31 01:42:58;;;;;;;8.18;5.55;;;3.70;99.90;;;;;;5044080;28;20020;-90
2020/12/31 01:45:24;;;;;;;11.30;6.63;;;3.70;99.90;;;;;;5046271;28;20112;-90
2020/12/31 01:47:49;;;;;;;12.05;7.95;;;3.70;99.90;;;;;;5054241;28;20024;-89
2020/12/31 01:50:15;;;;;;;11.30;7.28;;;3.70;99.90;;;;;;5043731;28;20035;-89
2020/12/31 01:52:41;;;;;;;12.10;8.30;;;3.60;99.90;;;;;;5062330;28;20597;-89
2020/12/31 01:55:06;;;;;;;10.43;7.80;;;3.60;99.90;;;;;;5040623;28;20029;-89
2020/12/31 01:57:32;;;;;;;14.55;8.95;;;3.60;99.90;;;;;;5049102;28;20024;-90
2020/12/31 01:59:58;;;;;;;14.05;9.90;;;3.50;99.90;;;;;;5049712;28;20044;-90
2020/12/31 02:02:24;;;;;;;12.35;9.43;;;3.50;99.90;;;;;;5043786;28;20044;-90
2020/12/31 02:04:52;;;;;;;14.50;9.95;;;3.50;99.90;;;;;;5037605;28;20021;-90
2020/12/31 02:07:18;;;;;;;14.27;9.73;;;3.50;99.90;;;;;;5046446;28;20085;-89
2020/12/31 02:09:44;;;;;;;15.73;10.30;;;3.50;99.90;;;;;;5036465;28;20029;-89
2020/12/31 02:12:09;;;;;;;18.33;11.43;;;3.50;99.90;;;;;;5047049;28;20024;-89
2020/12/31 02:14:35;;;;;;;14.70;10.40;;;3.50;99.90;;;;;;5061281;28;20094;-89
2020/12/31 02:17:01;;;;;;;15.05;10.15;;;3.50;99.90;;;;;;5044919;28;20029;-89
2020/12/31 02:19:26;;;;;;;17.88;11.68;;;3.40;99.90;;;;;;5043991;28;20108;-89
2020/12/31 02:21:52;;;;;;;15.63;11.00;;;3.40;99.90;;;;;;5043472;28;20028;-89
2020/12/31 02:24:19;;;;;;;17.48;11.40;;;3.40;99.90;;;;;;5061516;28;20033;-90
2020/12/31 02:26:48;;;;;;;16.48;11.23;;;3.40;99.90;;;;;;5044242;28;20022;-89
2020/12/31 02:29:15;;;;;;;16.33;11.85;;;3.40;99.90;;;;;;5044099;28;20021;-89
2020/12/31 02:31:42;;;;;;;16.15;11.57;;;3.40;99.90;;;;;;5055604;28;20074;-88
2020/12/31 02:34:09;;;;;;;16.67;10.73;;;3.40;99.90;;;;;;5057017;28;20076;-88
2020/12/31 02:36:37;;;;;;;17.38;11.98;;;3.40;99.90;;;;;;5040578;28;20021;-88
2020/12/31 02:39:11;;;;;;;17.48;11.23;;;3.40;99.90;;;;;;5060679;28;20070;-88
2020/12/31 02:41:37;;;;;;;15.60;10.82;;;3.40;99.90;;;;;;5040849;28;20112;-88
2020/12/31 02:44:04;;;;;;;15.07;11.05;;;3.40;99.90;;;;;;5060740;28;20021;-88
2020/12/31 02:46:30;;;;;;;16.15;10.75;;;3.40;99.90;;;;;;5045804;28;20024;-88
2020/12/31 02:48:56;;;;;;;14.77;10.48;;;3.40;99.90;;;;;;5044130;28;20017;-88
2020/12/31 02:51:21;;;;;;;12.43;9.98;;;3.40;99.90;;;;;;5044810;28;20024;-88
2020/12/31 02:53:47;;;;;;;16.05;10.55;;;3.40;99.90;;;;;;5059058;28;20025;-88
2020/12/31 02:56:19;;;;;;;13.10;10.43;;;3.40;99.90;;;;;;5059640;28;20016;-88
2020/12/31 02:58:46;;;;;;;14.43;10.45;;;3.40;99.90;;;;;;5063822;28;20519;-88
2020/12/31 03:01:12;;;;;;;14.23;9.57;;;3.40;99.90;;;;;;5059363;28;20021;-88
2020/12/31 03:03:38;;;;;;;14.57;10.05;;;3.40;99.90;;;;;;5061920;28;20059;-88
2020/12/31 03:06:05;;;;;;;16.48;9.80;;;3.30;99.90;;;;;;5044501;28;20104;-88
2020/12/31 03:08:31;;;;;;;12.10;8.10;;;3.30;99.90;;;;;;5038749;28;20199;-88
2020/12/31 03:10:57;;;;;;;12.60;9.52;;;3.30;99.90;;;;;;5055531;28;20123;-88
2020/12/31 03:13:27;;;;;;;11.05;8.65;;;3.30;99.90;;;;;;5045776;28;20124;-88
2020/12/31 03:15:53;;;;;;;13.00;8.50;;;3.30;99.90;;;;;;5049744;28;20050;-88
2020/12/31 03:18:19;;;;;;;11.23;8.43;;;3.30;99.90;;;;;;5044456;28;20387;-88
2020/12/31 03:20:49;;;;;;;12.30;8.80;;;3.30;99.90;;;;;;5056520;28;20107;-88
2020/12/31 03:23:14;;;;;;;14.40;9.48;;;3.40;99.90;;;;;;5040092;28;20017;-88
2020/12/31 03:25:41;;;;;;;11.23;7.97;;;3.40;99.90;;;;;;5058369;28;20031;-88
2020/12/31 03:28:07;;;;;;;12.15;7.88;;;3.40;99.90;;;;;;5057009;28;20028;-88
2020/12/31 03:30:34;;;;;;;9.23;7.38;;;3.40;99.90;;;;;;5048707;28;20107;-88
2020/12/31 03:33:00;;;;;;;9.48;7.00;;;3.30;99.90;;;;;;5044531;28;20029;-88
2020/12/31 03:35:25;;;;;;;10.10;7.47;;;3.40;99.90;;;;;;5043912;28;20083;-88
2020/12/31 03:37:51;;;;;;;11.05;6.45;;;3.40;99.90;;;;;;5063524;28;20035;-88
2020/12/31 03:40:17;;;;;;;9.43;6.95;;;3.30;99.90;;;;;;5046623;28;20047;-88
2020/12/31 03:42:43;;;;;;;9.27;6.85;;;3.40;99.90;;;;;;5058799;28;20025;-85
2020/12/31 03:45:09;;;;;;;7.53;6.03;;;3.40;99.90;;;;;;5037696;28;20025;-88
2020/12/31 03:47:34;;;;;;;10.13;6.47;;;3.30;99.90;;;;;;5047523;28;20017;-88
2020/12/31 03:50:00;;;;;;;8.00;6.25;;;3.40;99.90;;;;;;5062372;28;20484;-87
2020/12/31 03:52:25;;;;;;;10.27;6.32;;;3.40;99.90;;;;;;5058557;28;20012;-88
2020/12/31 03:54:51;;;;;;;10.63;6.47;;;3.40;99.90;;;;;;5040300;28;20031;-88
2020/12/31 03:57:16;;;;;;;9.25;6.82;;;3.40;99.90;;;;;;5040948;28;20112;-88
2020/12/31 03:59:42;;;;;;;8.77;6.32;;;3.30;99.90;;;;;;5045050;28;20027;-88
2020/12/31 04:02:07;;;;;;;8.02;6.00;;;3.30;99.90;;;;;;5057992;28;20384;-88
2020/12/31 04:04:33;;;;;;;7.93;6.32;;;3.40;99.90;;;;;;5042483;28;20035;-87
2020/12/31 04:06:58;;;;;;;9.65;6.40;;;3.40;99.90;;;;;;5051127;28;20067;-87
2020/12/31 04:09:23;;;;;;;10.50;6.30;;;3.40;99.90;;;;;;5044353;28;20565;-87
2020/12/31 04:11:49;;;;;;;8.05;6.35;;;3.40;99.90;;;;;;5041711;28;20025;-88
2020/12/31 04:14:14;;;;;;;8.80;6.90;;;3.40;99.90;;;;;;5057279;28;20024;-87
2020/12/31 04:16:40;;;;;;;7.68;5.88;;;3.40;99.90;;;;;;5038359;28;20542;-87
2020/12/31 04:19:05;;;;;;;12.13;7.05;;;3.40;99.90;;;;;;5039499;28;20035;-88
2020/12/31 04:21:31;;;;;;;10.02;6.15;;;3.40;99.90;;;;;;5061679;28;20016;-88
2020/12/31 04:23:56;;;;;;;10.63;6.75;;;3.40;99.90;;;;;;5043728;28;20079;-88
2020/12/31 04:26:22;;;;;;;10.70;7.32;;;3.40;99.90;;;;;;5055030;28;20069;-88
2020/12/31 04:28:47;;;;;;;9.95;6.88;;;3.40;99.90;;;;;;5040635;28;20025;-88
2020/12/31 04:31:13;;;;;;;10.35;6.53;;;3.40;99.90;;;;;;5054461;28;20365;-88
2020/12/31 04:33:38;;;;;;;11.32;7.15;;;3.40;99.90;;;;;;5041582;28;20111;-88
2020/12/31 04:36:04;;;;;;;10.05;6.65;;;3.40;99.90;;;;;;5041269;28;20032;-88
2020/12/31 04:38:29;;;;;;;9.90;6.68;;;3.40;99.90;;;;;;5040832;28;20033;-88
2020/12/31 04:40:55;;;;;;;9.23;6.07;;;3.40;99.90;;;;;;5042002;28;20029;-87
2020/12/31 04:43:22;;;;;;;10.73;6.85;;;3.40;99.90;;;;;;5039823;28;20021;-88
2020/12/31 04:45:49;;;;;;;8.82;6.70;;;3.40;99.90;;;;;;5041878;28;20099;-87
2020/12/31 04:48:37;;;;;;;8.68;6.22;;;3.40;99.90;;;;;;5041386;28;20013;-86
2020/12/31 04:51:06;;;;;;;9.55;6.07;;;3.40;99.90;;;;;;5061424;28;20111;-87
2020/12/31 04:53:32;;;;;;;11.25;7.63;;;3.30;99.90;;;;;;5057451;28;20032;-88
2020/12/31 04:56:01;;;;;;;9.68;6.63;;;3.40;99.90;;;;;;5062694;28;20020;-88
2020/12/31 04:58:27;;;;;;;9.27;6.35;;;3.40;99.90;;;;;;5047461;28;20021;-88
2020/12/31 05:00:52;;;;;;;8.25;5.40;;;3.30;99.90;;;;;;5058659;28;20495;-87
2020/12/31 05:03:18;;;;;;;8.93;6.45;;;3.40;99.90;;;;;;5061255;28;20052;-87
2020/12/31 05:05:45;;;;;;;11.35;6.32;;;3.40;99.90;;;;;;5038560;28;20506;-88
2020/12/31 05:08:11;;;;;;;11.95;6.50;;;3.30;99.90;;;;;;5055964;28;20543;-87
2020/12/31 05:10:37;;;;;;;9.05;6.07;;;3.40;99.90;;;;;;5037968;28;20067;-87
2020/12/31 05:13:05;;;;;;;8.60;5.75;;;3.30;99.90;;;;;;5053926;28;20131;-89
2020/12/31 05:15:34;;;;;;;8.98;4.88;;;3.30;99.90;;;;;;5058796;28;20021;-88
2020/12/31 05:18:22;;;;;;;7.13;5.47;;;3.30;99.90;;;;;;5052854;28;20021;-87
2020/12/31 05:20:50;;;;;;;7.25;4.88;;;3.30;99.90;;;;;;5057707;28;20044;-87
2020/12/31 05:23:18;;;;;;;8.82;5.45;;;3.30;99.90;;;;;;5059978;28;20028;-87
2020/12/31 05:25:44;;;;;;;7.00;5.03;;;3.30;99.90;;;;;;5051756;28;20111;-87
2020/12/31 05:28:37;;;;;;;5.93;4.78;;;3.30;99.90;;;;;;5055373;28;20013;-87
2020/12/31 05:31:12;;;;;;;6.55;4.57;;;3.30;99.90;;;;;;5056323;28;20028;-88
2020/12/31 05:33:42;;;;;;;7.57;4.55;;;3.30;99.90;;;;;;5037775;28;20017;-88
2020/12/31 05:36:15;;;;;;;7.00;4.40;;;3.30;99.90;;;;;;5040072;28;20040;-87
2020/12/31 05:38:45;;;;;;;5.30;4.07;;;3.30;99.90;;;;;;5039593;28;20021;-88
2020/12/31 05:41:11;;;;;;;6.30;4.40;;;3.30;99.90;;;;;;5051216;28;20078;-87
2020/12/31 05:43:39;;;;;;;5.55;4.03;;;3.30;99.90;;;;;;5041714;28;20313;-87
2020/12/31 05:46:12;;;;;;;6.65;3.88;;;3.30;99.90;;;;;;5042340;28;20405;-87
2020/12/31 05:48:38;;;;;;;6.95;4.40;;;3.30;99.90;;;;;;5050460;28;20017;-87
2020/12/31 05:51:23;;;;;;;5.60;3.67;;;3.30;99.90;;;;;;5042074;28;20178;-87
2020/12/31 05:53:50;;;;;;;8.15;3.55;;;3.30;99.90;;;;;;5038831;28;20053;-88
2020/12/31 05:56:18;;;;;;;4.32;3.20;;;3.20;99.90;;;;;;5040312;28;20032;-87
2020/12/31 05:58:45;;;;;;;4.72;3.15;;;3.30;99.90;;;;;;5055817;28;20029;-87
2020/12/31 06:01:13;;;;;;;4.30;3.13;;;3.30;99.90;;;;;;5058079;28;20025;-88
2020/12/31 06:03:47;;;;;;;5.07;3.13;;;3.20;99.90;;;;;;5051719;28;20017;-88
2020/12/31 06:06:17;;;;;;;6.45;3.05;;;3.30;99.90;;;;;;5039526;28;20365;-88
2020/12/31 06:08:54;;;;;;;4.65;3.00;;;3.20;99.90;;;;;;5041534;28;20087;-88
2020/12/31 06:11:30;;;;;;;3.97;2.70;;;3.20;99.90;;;;;;5042085;28;20017;-87
2020/12/31 06:13:57;;;;;;;5.18;2.78;;;3.20;99.90;;;;;;5057521;28;20025;-87
2020/12/31 06:16:27;;;;;;;5.50;3.00;;;3.20;99.90;;;;;;5044705;28;20040;-87
2020/12/31 06:19:01;;;;;;;4.75;3.03;;;3.20;99.90;;;;;;5043787;28;20071;-87
2020/12/31 06:21:40;;;;;;;3.88;2.60;;;3.10;99.90;;;;;;5046090;28;20032;-87
2020/12/31 06:24:12;;;;;;;5.93;2.80;;;3.10;99.90;;;;;;5054513;28;20538;-88
2020/12/31 06:26:40;;;;;;;4.18;2.38;;;3.10;99.90;;;;;;5044742;28;20021;-87
2020/12/31 06:29:06;;;;;;;3.67;2.30;;;3.10;99.90;;;;;;5056999;28;20017;-88
2020/12/31 06:31:32;;;;;;;3.95;2.50;;;3.20;99.90;;;;;;5039463;28;20021;-88
2020/12/31 06:33:58;;;;;;;5.20;2.65;;;3.10;99.90;;;;;;5063767;28;20109;-87
2020/12/31 06:36:32;;;;;;;3.50;2.13;;;3.10;99.90;;;;;;5058619;28;20104;-88
2020/12/31 06:38:57;;;;;;;5.85;2.28;;;3.10;99.90;;;;;;5045559;28;20023;-88
2020/12/31 06:41:37;;;;;;;5.05;2.00;;;3.10;99.90;;;;;;5060249;28;20388;-88
2020/12/31 06:44:15;;;;;;;3.47;1.98;;;3.10;99.90;;;;;;5040888;28;20025;-87
2020/12/31 06:46:50;;;;;;;5.13;2.00;;;3.10;99.90;;;;;;5058427;28;20577;-88
2020/12/31 06:49:16;;;;;;;4.57;2.20;;;3.10;99.90;;;;;;5043704;28;20020;-88
2020/12/31 06:51:42;;;;;;;3.40;1.98;;;3.00;99.90;;;;;;5055628;28;20016;-87
2020/12/31 06:54:08;;;;;;;3.60;1.95;;;3.10;99.90;;;;;;5047735;28;20503;-87
2020/12/31 06:56:50;;;;;;;4.63;2.10;;;3.10;99.90;;;;;;5055510;28;20066;-88
2020/12/31 06:59:33;;;;;;;5.55;2.50;;;3.10;99.90;;;;;;5038300;28;20025;-87
2020/12/31 07:02:22;;;;;;;4.47;2.20;;;3.00;99.90;;;;;;5038617;28;20412;-87
2020/12/31 07:04:48;;;;;;;4.97;2.60;;;3.00;99.90;;;;;;5039911;28;20025;-87
2020/12/31 07:07:19;;;;;;;4.00;2.33;;;3.00;99.90;;;;;;5057714;28;20179;-89
2020/12/31 07:09:55;;;;;;;4.32;1.75;;;3.00;99.90;;;;;;5073896;28;20024;-89
2020/12/31 07:12:31;;;;;;;4.65;1.92;;;2.90;99.90;;;;;;5058261;28;20028;-87
2020/12/31 07:14:57;;;;;;;4.75;1.55;;;2.90;99.90;;;;;;5076401;28;20037;-89
2020/12/31 07:17:23;;;;;;;5.13;1.88;;;2.90;99.90;;;;;;5058938;28;20031;-88
2020/12/31 07:19:48;;;;;;;3.58;2.13;;;2.90;99.90;;;;;;5076179;28;20029;-90
2020/12/31 07:22:15;;;;;;;2.83;1.60;;;2.90;99.90;;;;;;5057436;28;20020;-86
2020/12/31 07:24:53;;;;;;;3.63;1.75;;;2.90;99.90;;;;;;5057608;28;20036;-87
2020/12/31 07:27:23;;;;;;;2.95;1.60;;;3.00;99.90;;;;;;5058046;28;20372;-88
2020/12/31 07:29:58;;;;;;;4.53;1.57;;;3.00;99.90;;;;;;5057622;28;20025;-87
2020/12/31 07:32:59;;;;;;;3.05;1.60;;;3.00;99.90;;;;;;5075693;28;20040;-86
2020/12/31 07:35:29;;;;;;;2.63;1.60;;;3.00;99.90;;;;;;5057737;28;20456;-86
2020/12/31 07:37:58;;;;;;;2.30;1.45;;;3.00;99.90;;;;;;5057611;28;20029;-87
2020/12/31 07:40:40;;;;;;;4.38;1.65;;;3.00;99.90;;;;;;5057759;28;20044;-86
2020/12/31 07:43:09;;;;;;;2.60;1.55;;;3.00;99.90;;;;;;5057584;28;20024;-86
2020/12/31 07:45:34;;;;;;;3.00;1.88;;;3.00;99.90;;;;;;5056736;28;20021;-87
2020/12/31 07:48:00;;;;;;;3.33;1.90;;;3.00;99.90;;;;;;5057089;28;20134;-87
2020/12/31 07:50:27;;;;;;;2.33;1.88;;;3.10;99.90;;;;;;5057009;28;20111;-86
2020/12/31 07:52:53;;;;;;;3.47;1.98;;;3.10;99.90;;;;;;5075272;28;20447;-87
2020/12/31 07:55:19;;;;;;;4.80;2.67;;;3.00;99.90;;;;;;5057508;28;20024;-87
2020/12/31 07:57:45;;;;;;;5.22;2.20;;;3.00;99.90;;;;;;5075259;28;20031;-87
2020/12/31 08:00:18;;;;;;;6.18;3.50;;;3.00;99.90;;;;;;5057270;28;20036;-88
2020/12/31 08:02:52;;;;;;;3.45;2.17;;;3.00;99.90;;;;;;5075362;28;20021;-86
2020/12/31 08:05:20;;;;;;;5.30;2.50;;;3.00;99.90;;;;;;5056999;28;20055;-88
2020/12/31 08:07:51;;;;;;;5.00;2.50;;;3.00;99.90;;;;;;5056806;28;20045;-86
2020/12/31 08:10:16;;;;;;;2.97;2.10;;;3.00;99.90;;;;;;5072383;28;20028;-87
2020/12/31 08:12:52;;;;;;;9.55;2.47;;;3.00;99.90;;;;;;5074976;28;20384;-87
2020/12/31 08:15:21;;;;;;;4.13;2.38;;;3.00;99.90;;;;;;5056958;28;20047;-87
2020/12/31 08:17:55;;;;;;;5.13;3.30;;;3.00;99.90;;;;;;5056453;28;20024;-87
2020/12/31 08:20:23;;;;;;;5.15;3.28;;;3.00;99.90;;;;;;5072145;28;20024;-87
2020/12/31 08:22:57;;;;;;;5.43;3.10;;;3.00;99.90;;;;;;5056550;28;20025;-86
2020/12/31 08:25:36;;;;;;;5.47;2.90;;;3.00;99.90;;;;;;5072184;28;20100;-87
2020/12/31 08:28:07;;;;;;;4.50;2.80;;;2.90;99.90;;;;;;5054794;28;20025;-87
2020/12/31 08:30:37;;;;;;;5.97;3.80;;;3.00;99.90;;;;;;5053547;28;20020;-87
2020/12/31 08:33:06;;;;;;;8.05;3.70;;;3.00;99.90;;;;;;5055571;28;20028;-87
2020/12/31 08:35:40;;;;;;;4.63;3.37;;;2.90;99.90;;;;;;5055832;28;20082;-86
2020/12/31 08:38:11;;;;;;;4.20;2.83;;;2.90;99.90;;;;;;5073345;28;20112;-87
2020/12/31 08:40:45;;;;;;;5.40;3.65;;;3.00;99.90;;;;;;5053573;28;20047;-87
2020/12/31 08:43:22;;;;;;;5.70;3.60;;;3.00;99.90;;;;;;5055983;28;20024;-86
2020/12/31 08:45:49;;;;;;;5.78;3.35;;;3.10;99.90;;;;;;5053334;28;20189;-86
2020/12/31 08:48:17;;;;;;;5.38;2.92;;;3.10;99.90;;;;;;5041988;28;20021;-86
2020/12/31 08:51:01;;;;;;;7.10;3.35;;;3.20;99.90;;;;;;5035665;28;20067;-86
2020/12/31 08:53:27;;;;;;;6.47;3.80;;;3.20;99.90;;;;;;5035930;28;20035;-85
2020/12/31 08:55:55;;;;;;;4.07;2.92;;;3.10;99.90;;;;;;5053509;28;20027;-85
2020/12/31 08:58:29;;;;;;;6.47;2.53;;;3.10;99.90;;;;;;5055625;28;20064;-85
2020/12/31 09:00:55;;;;;;;3.60;2.88;;;3.00;99.90;;;;;;5053135;28;20056;-85
2020/12/31 09:03:21;;;;;;;6.88;3.45;;;3.00;99.90;;;;;;5042011;28;20103;-86
2020/12/31 09:05:57;;;;;;;5.30;3.17;;;3.00;99.90;;;;;;5045444;28;20544;-85
2020/12/31 09:08:23;;;;;;;6.10;3.03;;;3.00;99.90;;;;;;5035410;28;20049;-86
2020/12/31 09:10:59;;;;;;;4.50;3.08;;;3.00;99.90;;;;;;5053150;28;20075;-85
2020/12/31 09:13:24;;;;;;;3.72;2.38;;;3.00;99.90;;;;;;5052535;28;20028;-86
2020/12/31 09:16:06;;;;;;;4.22;2.50;;;3.00;99.90;;;;;;5034533;28;20104;-85
2020/12/31 09:18:32;;;;;;;4.55;3.05;;;3.00;99.90;;;;;;5034962;28;20028;-86
2020/12/31 09:20:58;;;;;;;4.25;2.40;;;2.90;99.90;;;;;;5035098;28;20032;-85
2020/12/31 09:23:23;;;;;;;4.47;3.03;;;2.90;99.90;;;;;;5035026;28;20025;-85
2020/12/31 09:25:52;;;;;;;4.80;3.30;;;2.90;99.90;;;;;;5035098;28;20021;-86
2020/12/31 09:28:18;;;;;;;6.68;3.95;;;2.90;99.90;;;;;;5034920;28;20021;-86
2020/12/31 09:30:44;;;;;;;6.00;4.20;;;2.90;99.90;;;;;;5034905;28;20036;-86
2020/12/31 09:33:16;;;;;;;8.98;5.45;;;2.90;99.90;;;;;;5034853;28;20071;-85
2020/12/31 09:35:42;;;;;;;7.38;5.07;;;3.00;99.90;;;;;;5053199;28;20040;-86
2020/12/31 09:38:07;;;;;;;6.90;4.55;;;2.90;99.90;;;;;;5035135;28;20025;-85
2020/12/31 09:40:33;;;;;;;8.48;6.28;;;2.90;99.90;;;;;;5034672;28;20167;-85
2020/12/31 09:42:59;;;;;;;10.95;6.25;;;3.00;99.90;;;;;;5037027;28;20051;-86
2020/12/31 09:45:29;;;;;;;10.80;6.82;;;3.00;99.90;;;;;;5041850;28;20544;-85
2020/12/31 09:48:04;;;;;;;11.68;7.53;;;3.00;99.90;;;;;;5072076;28;20013;-85
2020/12/31 09:50:29;;;;;;;12.50;7.90;;;3.00;99.90;;;;;;5045617;28;20033;-85
2020/12/31 09:52:56;;;;;;;10.02;6.68;;;3.00;99.90;;;;;;5052885;28;20021;-85
2020/12/31 09:55:22;;;;;;;12.68;7.30;;;3.10;99.90;;;;;;5034753;28;20021;-86
2020/12/31 09:57:48;;;;;;;9.88;6.32;;;3.20;99.90;;;;;;5035075;28;20036;-86
2020/12/31 10:00:13;;;;;;;12.57;7.80;;;3.30;99.90;;;;;;5034807;28;20028;-85
2020/12/31 10:02:39;;;;;;;11.80;8.05;;;3.30;99.90;;;;;;5034968;28;20071;-86
2020/12/31 10:05:05;;;;;;;13.45;8.73;;;3.30;99.90;;;;;;5034862;28;20358;-86
2020/12/31 10:07:31;;;;;;;12.70;7.97;;;3.40;99.90;;;;;;5034938;28;20051;-86
2020/12/31 10:09:57;;;;;;;11.73;7.70;;;3.40;99.90;;;;;;5034852;28;20029;-86
2020/12/31 10:12:24;;;;;;;14.50;8.50;;;3.50;99.90;;;;;;5034569;28;20063;-86
2020/12/31 10:14:50;;;;;;;16.20;11.00;;;3.50;99.90;;;;;;5051924;28;20059;-86
2020/12/31 10:17:15;;;;;;;14.77;9.13;;;3.50;99.90;;;;;;5054399;28;20512;-86
2020/12/31 10:19:41;;;;;;;10.55;7.22;;;3.60;99.90;;;;;;5072048;28;20507;-86
2020/12/31 10:22:08;;;;;;;11.07;7.00;;;3.60;99.90;;;;;;5047931;28;20412;-86
2020/12/31 10:24:33;;;;;;;11.32;7.20;;;3.70;99.90;;;;;;5049904;28;20013;-86
2020/12/31 10:26:59;;;;;;;11.65;7.18;;;3.70;99.90;;;;;;5054017;28;20384;-86
2020/12/31 10:29:24;;;;;;;11.05;6.57;;;3.70;99.90;;;;;;5053992;28;20472;-90
2020/12/31 10:31:54;;;;;;;15.93;10.05;;;3.80;99.90;;;;;;5072440;28;20055;-86
2020/12/31 10:34:21;;;;;;;13.50;8.45;;;3.70;99.90;;;;;;5047739;28;20045;-88
2020/12/31 10:36:55;;;;;;;13.52;8.90;;;3.70;99.90;;;;;;5035103;28;20034;-87
2020/12/31 10:39:21;;;;;;;12.48;8.57;;;3.80;99.90;;;;;;5052888;28;20067;-88
2020/12/31 10:41:48;;;;;;;11.13;7.15;;;3.80;99.90;;;;;;5035309;28;20063;-87
2020/12/31 10:44:17;;;;;;;11.98;7.57;;;3.90;99.90;;;;;;5035471;28;20147;-87
2020/12/31 10:46:43;;;;;;;12.45;7.32;;;3.90;99.90;;;;;;5048944;28;20024;-87
2020/12/31 10:49:08;;;;;;;12.52;8.18;;;4.00;99.90;;;;;;5053372;28;20024;-87
2020/12/31 10:51:39;;;;;;;14.38;8.77;;;4.00;99.90;;;;;;5072154;28;20025;-87
2020/12/31 10:54:05;;;;;;;12.35;8.13;;;4.10;99.90;;;;;;5052265;28;20020;-87
2020/12/31 10:56:31;;;;;;;8.85;6.00;;;4.10;99.90;;;;;;5054526;28;20032;-87
2020/12/31 10:58:57;;;;;;;8.63;5.85;;;4.20;99.90;;;;;;5057062;28;20048;-87
2020/12/31 11:01:22;;;;;;;9.80;5.22;;;4.30;99.90;;;;;;5055780;28;20028;-87
2020/12/31 11:03:48;;;;;;;8.95;5.45;;;4.30;99.90;;;;;;5076008;28;20150;-86
2020/12/31 11:06:21;;;;;;;10.40;6.93;;;4.30;99.90;;;;;;5058065;28;20017;-87
2020/12/31 11:08:47;;;;;;;10.18;5.95;;;4.40;99.90;;;;;;5072796;28;20047;-87
2020/12/31 11:11:18;;;;;;;8.95;6.05;;;4.40;99.90;;;;;;5058110;28;20024;-87
2020/12/31 11:13:44;;;;;;;8.60;4.90;;;4.40;99.90;;;;;;5055423;28;20029;-87
2020/12/31 11:16:09;;;;;;;7.78;5.03;;;4.50;99.90;;;;;;5057743;28;20031;-87
2020/12/31 11:18:35;;;;;;;9.05;6.03;;;4.50;99.90;;;;;;5057735;28;20027;-86
2020/12/31 11:21:01;;;;;;;9.10;5.50;;;4.50;99.90;;;;;;5057192;28;20032;-87
2020/12/31 11:23:26;;;;;;;8.15;5.63;;;4.50;99.90;;;;;;5075496;28;20021;-87
2020/12/31 11:25:51;;;;;;;10.30;5.75;;;4.60;99.90;;;;;;5057505;28;20088;-87
2020/12/31 11:28:17;;;;;;;11.98;7.65;;;4.60;99.90;;;;;;5057334;28;20023;-87
2020/12/31 11:30:43;;;;;;;9.10;6.78;;;4.60;99.90;;;;;;5057611;28;20027;-88
2020/12/31 11:33:10;;;;;;;12.45;7.50;;;4.70;99.90;;;;;;5074982;28;20081;-87
2020/12/31 11:35:35;;;;;;;9.70;6.80;;;4.70;99.90;;;;;;5057959;28;20036;-88
2020/12/31 11:38:01;;;;;;;10.10;6.47;;;4.80;99.90;;;;;;5057728;28;20021;-88
2020/12/31 11:40:26;;;;;;;9.35;5.93;;;4.80;99.90;;;;;;5057643;28;20028;-87
2020/12/31 11:42:52;;;;;;;9.35;6.32;;;4.90;99.90;;;;;;5075081;28;20036;-87
2020/12/31 11:45:17;;;;;;;9.02;5.90;;;4.90;99.90;;;;;;5057142;28;20024;-86
2020/12/31 11:47:43;;;;;;;10.23;7.15;;;4.90;99.90;;;;;;5056776;28;20024;-88
2020/12/31 11:50:09;;;;;;;9.98;6.63;;;4.90;99.90;;;;;;5057541;28;20480;-87
2020/12/31 11:52:34;;;;;;;8.77;5.45;;;4.80;99.90;;;;;;5057613;28;20543;-88
2020/12/31 11:55:00;;;;;;;8.18;5.25;;;4.80;99.90;;;;;;5075794;28;20029;-88
2020/12/31 11:57:25;;;;;;;7.63;5.38;;;4.80;99.90;;;;;;5058017;28;20416;-87
2020/12/31 11:59:51;;;;;;;7.85;5.32;;;4.80;99.90;;;;;;5057834;28;20031;-89
2020/12/31 12:02:16;;;;;;;8.80;5.35;;;4.80;99.90;;;;;;5057497;28;20097;-89
2020/12/31 12:04:42;;;;;;;10.43;6.57;;;4.80;99.90;;;;;;5055852;28;20025;-88
2020/12/31 12:07:07;;;;;;;8.63;5.90;;;4.90;99.90;;;;;;5041053;28;20048;-87
2020/12/31 12:09:33;;;;;;;10.57;6.28;;;4.90;99.90;;;;;;5037259;28;20020;-88
2020/12/31 12:11:58;;;;;;;9.27;6.40;;;4.90;99.90;;;;;;5049791;28;20028;-86
2020/12/31 12:14:24;;;;;;;9.20;6.25;;;4.80;99.90;;;;;;5054109;28;20415;-88
2020/12/31 12:16:50;;;;;;;9.45;6.35;;;4.90;99.90;;;;;;5052597;28;20540;-87
2020/12/31 12:19:16;;;;;;;9.60;6.38;;;4.90;99.90;;;;;;5053902;28;20021;-87
2020/12/31 12:21:42;;;;;;;9.40;5.80;;;4.90;99.90;;;;;;5045548;28;20425;-86
2020/12/31 12:24:08;;;;;;;8.50;5.68;;;4.90;99.90;;;;;;5056853;28;20055;-88
2020/12/31 12:26:38;;;;;;;8.77;5.75;;;4.90;99.90;;;;;;5056881;28;20024;-93
2020/12/31 12:29:04;;;;;;;;;;;4.90;99.90;;;;;;5057181;28;20017;-89
2020/12/31 12:31:37;;;;;;;9.15;6.18;;;4.80;99.90;;;;;;5056612;28;19919;-88
2020/12/31 12:34:04;;;;;;;11.10;7.55;;;4.80;99.90;;;;;;5066043;28;20029;-88
2020/12/31 12:36:30;;;;;;;10.68;7.55;;;4.80;99.90;;;;;;5049962;28;20404;-90
2020/12/31 12:38:56;;;;;;;10.60;7.35;;;4.80;99.90;;;;;;5066002;28;20028;-87
2020/12/31 12:41:22;;;;;;;11.90;7.85;;;4.80;99.90;;;;;;5072063;28;20503;-87
2020/12/31 12:43:48;;;;;;;11.65;8.32;;;4.70;99.90;;;;;;5055799;28;20116;-88
2020/12/31 12:46:17;;;;;;;12.07;8.15;;;4.70;99.90;;;;;;5067958;28;20120;-87
2020/12/31 12:48:43;;;;;;;12.07;7.35;;;4.80;99.90;;;;;;5052836;28;20017;-89
2020/12/31 12:51:09;;;;;;;11.35;7.57;;;4.70;99.90;;;;;;5073627;28;20032;-88
2020/12/31 12:53:36;;;;;;;10.68;6.55;;;4.70;99.90;;;;;;5040229;28;20502;-87
2020/12/31 12:56:03;;;;;;;9.55;6.75;;;4.80;99.90;;;;;;5045440;28;20373;-87